Time;durP1;ratioP1;P1;durP2;ratioP2;P2;SDS_P1;SDS_P2;PMS_P1;PMS_P2;Temp;Humidity;BMP_temperature;BMP_pressure;BME280_temperature;BME280_humidity;BME280_pressure;Samples;Min_cycle;Max_cycle;Signal;HPM_P1;HPM_P2
2022/01/26 00:06:28;;;;;;;;;;;1.90;99.90;;;;;;5036234;28;19921;-68
2022/01/26 00:08:54;;;;;;;;;;;1.90;99.90;;;;;;5051443;28;19921;-68
2022/01/26 00:11:19;;;;;;;;;;;1.90;99.90;;;;;;5036119;28;20314;-68
2022/01/26 00:13:45;;;;;;;;;;;1.80;99.90;;;;;;5036043;28;20064;-68
2022/01/26 00:16:22;;;;;;;;;;;2.00;99.90;;;;;;5036115;28;19917;-68
2022/01/26 00:18:49;;;;;;;;;;;2.10;99.90;;;;;;5033383;28;19920;-68
2022/01/26 00:21:28;;;;;;;;;;;2.20;99.90;;;;;;5034872;28;19917;-68
2022/01/26 00:26:31;;;;;;;;;;;2.40;99.90;;;;;;5036210;28;20600;-68
2022/01/26 00:29:11;;;;;;;;;;;2.30;99.90;;;;;;5031491;28;19923;-68
2022/01/26 00:40:04;;;;;;;;;;;2.30;99.90;;;;;;5033733;28;20003;-67
2022/01/26 00:42:36;;;;;;;;;;;2.40;99.90;;;;;;5024394;28;19991;-68
2022/01/26 00:45:03;;;;;;;;;;;2.40;99.90;;;;;;5033005;28;19947;-68
2022/01/26 00:47:28;;;;;;;;;;;2.20;99.90;;;;;;5048661;28;20359;-68
2022/01/26 00:50:02;;;;;;;;;;;2.10;99.90;;;;;;5033447;28;19917;-68
2022/01/26 00:52:41;;;;;;;;;;;2.10;99.90;;;;;;5035281;28;19924;-68
2022/01/26 00:55:09;;;;;;;;;;;2.20;99.90;;;;;;5031968;28;19913;-68
2022/01/26 00:57:42;;;;;;;;;;;2.30;99.90;;;;;;5034400;28;20249;-68
2022/01/26 01:00:10;;;;;;;;;;;2.30;99.90;;;;;;5033934;28;19913;-67
2022/01/26 01:02:38;;;;;;;;;;;2.20;99.90;;;;;;5033319;28;19948;-68
2022/01/26 01:05:13;;;;;;;;;;;1.80;99.90;;;;;;5031589;28;20403;-68
2022/01/26 01:07:40;;;;;;;;;;;1.50;99.90;;;;;;5033109;28;19929;-68
2022/01/26 01:10:06;;;;;;;;;;;1.60;99.90;;;;;;5032796;28;19917;-68
2022/01/26 01:12:40;;;;;;;;;;;1.70;99.90;;;;;;5033025;28;19921;-68
2022/01/26 01:15:06;;;;;;;;;;;1.50;99.90;;;;;;5031608;28;19913;-68
2022/01/26 01:17:39;;;;;;;;;;;1.50;99.90;;;;;;5031776;28;19913;-68
2022/01/26 01:20:39;;;;;;;;;;;1.30;99.90;;;;;;5031178;28;19921;-68
2022/01/26 01:28:22;;;;;;;;;;;1.60;99.90;;;;;;5032718;28;19917;-68
2022/01/26 01:30:55;;;;;;;;;;;1.30;99.90;;;;;;5047599;28;20387;-68
2022/01/26 01:33:30;;;;;;;;;;;1.40;99.90;;;;;;5032720;28;19916;-68
2022/01/26 01:35:58;;;;;;;;;;;1.60;99.90;;;;;;5032427;28;19921;-69
2022/01/26 01:38:28;;;;;;;;;;;1.50;99.90;;;;;;5032935;28;20007;-68
2022/01/26 01:40:55;;;;;;;;;;;1.80;99.90;;;;;;5033123;28;19921;-68
2022/01/26 01:43:22;;;;;;;;;;;1.60;99.90;;;;;;5033536;28;20350;-68
2022/01/26 01:45:50;;;;;;;;;;;1.60;99.90;;;;;;5033483;28;19921;-68
2022/01/26 01:48:19;;;;;;;;;;;1.50;99.90;;;;;;5032321;28;20272;-68
2022/01/26 01:50:46;;;;;;;;;;;1.40;99.90;;;;;;5031040;28;20004;-68
2022/01/26 01:53:13;;;;;;;;;;;1.50;99.90;;;;;;5034438;28;19917;-68
2022/01/26 01:55:39;;;;;;;;;;;1.50;99.90;;;;;;5034268;28;20364;-68
2022/01/26 01:58:05;;;;;;;;;;;1.60;99.90;;;;;;5033990;28;20055;-68
2022/01/26 02:00:31;;;;;;;;;;;1.40;99.90;;;;;;5034175;28;20391;-68
2022/01/26 02:02:57;;;;;;;;;;;1.00;99.90;;;;;;5032961;28;19920;-68
2022/01/26 02:05:23;;;;;;;;;;;0.90;99.90;;;;;;5034143;28;19921;-68
2022/01/26 02:07:49;;;;;;;;;;;0.90;99.90;;;;;;5034120;28;19967;-68
2022/01/26 02:10:14;;;;;;;;;;;1.10;99.90;;;;;;5034009;28;19913;-68
2022/01/26 02:12:45;;;;;;;;;;;0.90;99.90;;;;;;5033836;28;20319;-68
2022/01/26 02:15:22;;;;;;;;;;;1.00;99.90;;;;;;5034006;28;19913;-68
2022/01/26 02:53:42;;;;;;;;;;;1.10;99.90;;;;;;5033423;28;19924;-68
2022/01/26 02:56:17;;;;;;;;;;;1.10;99.90;;;;;;5032417;28;19913;-68
2022/01/26 02:59:01;;;;;;;;;;;1.10;99.90;;;;;;5033459;28;19952;-68
2022/01/26 03:09:43;;;;;;;;;;;1.10;99.90;;;;;;5033266;28;19913;-68
2022/01/26 03:12:11;;;;;;;;;;;1.20;99.90;;;;;;5048615;28;19920;-68
2022/01/26 03:17:17;;;;;;;;;;;1.00;99.90;;;;;;5033556;28;19917;-68
2022/01/26 03:19:49;;;;;;;;;;;0.90;99.90;;;;;;5032642;28;20207;-68
2022/01/26 03:30:07;;;;;;;;;;;0.80;99.90;;;;;;5033227;28;19952;-69
2022/01/26 03:35:12;;;;;;;;;;;0.80;99.90;;;;;;5032866;28;20284;-69
2022/01/26 03:37:39;;;;;;;;;;;0.80;99.90;;;;;;5031886;28;19914;-69
2022/01/26 03:40:12;;;;;;;;;;;0.90;99.90;;;;;;5033128;28;19921;-69
2022/01/26 03:42:38;;;;;;;;;;;1.00;99.90;;;;;;5033101;28;19913;-69
2022/01/26 03:45:04;;;;;;;;;;;0.90;99.90;;;;;;5032989;28;19929;-68
2022/01/26 03:47:29;;;;;;;;;;;1.00;99.90;;;;;;5032539;28;19917;-69
2022/01/26 03:49:55;;;;;;;;;;;1.00;99.90;;;;;;5032876;28;20355;-69
2022/01/26 03:52:20;;;;;;;;;;;1.10;99.90;;;;;;5033696;28;19920;-69
2022/01/26 03:54:46;;;;;;;;;;;1.10;99.90;;;;;;5036518;28;19921;-69
2022/01/26 03:57:12;;;;;;;;;;;1.00;99.90;;;;;;5036442;28;19913;-69
2022/01/26 03:59:37;;;;;;;;;;;0.80;99.90;;;;;;5036311;28;19913;-69
2022/01/26 04:02:03;;;;;;;;;;;0.80;99.90;;;;;;5036362;28;19989;-69
2022/01/26 04:04:33;;;;;;;;;;;0.70;99.90;;;;;;5035030;28;19983;-68
2022/01/26 04:07:00;;;;;;;;;;;0.70;99.90;;;;;;5035062;28;19921;-68
2022/01/26 04:09:26;;;;;;;;;;;0.60;99.90;;;;;;5036253;28;19913;-69
2022/01/26 04:11:51;;;;;;;;;;;0.60;99.90;;;;;;5035284;28;19913;-69
2022/01/26 04:14:20;;;;;;;;;;;0.60;99.90;;;;;;5036256;28;19920;-68
2022/01/26 04:16:46;;;;;;;;;;;0.60;99.90;;;;;;5036018;28;19920;-68
2022/01/26 04:19:12;;;;;;;;;;;0.70;99.90;;;;;;5051702;28;19996;-68
2022/01/26 04:24:35;;;;;;;;;;;0.40;99.90;;;;;;5033855;28;20024;-69
2022/01/26 04:27:14;;;;;;;;;;;0.20;99.90;;;;;;5036076;28;20403;-69
2022/01/26 04:29:39;;;;;;;;;;;0.40;99.90;;;;;;5036332;28;19980;-69
2022/01/26 04:32:06;;;;;;;;;;;0.70;99.90;;;;;;5035956;28;20466;-69
2022/01/26 04:34:33;;;;;;;;;;;0.70;99.90;;;;;;5034647;28;20368;-69
2022/01/26 04:39:53;;;;;;;;;;;0.60;99.90;;;;;;5035674;28;19920;-69
2022/01/26 04:42:28;;;;;;;;;;;0.60;99.90;;;;;;5035854;28;19913;-69
2022/01/26 04:45:01;;;;;;;;;;;0.60;99.90;;;;;;5034457;28;19928;-69
2022/01/26 04:47:27;;;;;;;;;;;0.50;99.90;;;;;;5035697;28;19913;-69
2022/01/26 04:49:52;;;;;;;;;;;0.60;99.90;;;;;;5035689;28;19959;-69
2022/01/26 04:52:18;;;;;;;;;;;0.80;99.90;;;;;;5035594;28;19967;-69
2022/01/26 04:54:44;;;;;;;;;;;0.60;99.90;;;;;;5035651;28;19917;-69
2022/01/26 04:57:09;;;;;;;;;;;0.40;99.90;;;;;;5051032;28;20000;-69
2022/01/26 04:59:35;;;;;;;;;;;0.30;99.90;;;;;;5035433;28;19917;-69
2022/01/26 05:02:03;;;;;;;;;;;0.60;99.90;;;;;;5035284;28;19962;-68
2022/01/26 05:04:29;;;;;;;;;;;0.70;99.90;;;;;;5034453;28;19924;-69
2022/01/26 05:06:54;;;;;;;;;;;0.60;99.90;;;;;;5035267;28;19921;-69
2022/01/26 05:09:21;;;;;;;;;;;0.50;99.90;;;;;;5035326;28;19952;-69
2022/01/26 05:11:49;;;;;;;;;;;0.40;99.90;;;;;;5035200;28;19913;-68
2022/01/26 05:14:15;;;;;;;;;;;0.40;99.90;;;;;;5035223;28;19919;-68
2022/01/26 05:16:41;;;;;;;;;;;0.50;99.90;;;;;;5035076;28;20015;-69
2022/01/26 05:19:06;;;;;;;;;;;0.60;99.90;;;;;;5035010;28;19913;-69
2022/01/26 05:21:33;;;;;;;;;;;0.50;99.90;;;;;;5034743;28;19917;-68
2022/01/26 05:23:58;;;;;;;;;;;0.40;99.90;;;;;;5050204;28;19917;-68
2022/01/26 05:26:24;;;;;;;;;;;0.40;99.90;;;;;;5034992;28;20020;-68
2022/01/26 05:28:50;;;;;;;;;;;0.10;99.90;;;;;;5035000;28;19920;-68
2022/01/26 05:31:16;;;;;;;;;;;0.10;99.90;;;;;;5034869;28;19913;-68
2022/01/26 05:33:41;;;;;;;;;;;0.50;99.90;;;;;;5034708;28;20245;-68
2022/01/26 05:36:07;;;;;;;;;;;0.00;99.90;;;;;;5034657;28;19961;-68
2022/01/26 05:38:33;;;;;;;;;;;0.10;99.90;;;;;;5034853;28;19924;-68
2022/01/26 05:41:01;;;;;;;;;;;0.20;99.90;;;;;;5034695;28;19939;-69
2022/01/26 05:43:36;;;;;;;;;;;0.20;99.90;;;;;;5033328;28;19917;-69
2022/01/26 05:46:07;;;;;;;;;;;;;;;;;;5033172;28;19948;-68
2022/01/26 05:48:34;;;;;;;;;;;-0.70;99.90;;;;;;5034299;28;19913;-69
2022/01/26 05:51:07;;;;;;;;;;;0.50;99.90;;;;;;5029762;28;20368;-68
2022/01/26 05:53:34;;;;;;;;;;;0.40;99.90;;;;;;5032354;28;20006;-68
2022/01/26 05:56:01;;;;;;;;;;;0.50;99.90;;;;;;5032420;28;20352;-68
2022/01/26 05:58:27;;;;;;;;;;;0.70;99.90;;;;;;5047734;28;19913;-69
2022/01/26 06:00:52;;;;;;;;;;;0.40;99.90;;;;;;5032735;28;19917;-69
2022/01/26 06:03:18;;;;;;;;;;;0.50;99.90;;;;;;5032157;28;19923;-69
2022/01/26 06:05:43;;;;;;;;;;;0.50;99.90;;;;;;5032228;28;20446;-69
2022/01/26 06:08:09;;;;;;;;;;;0.60;99.90;;;;;;5032048;28;19917;-69
2022/01/26 06:10:35;;;;;;;;;;;0.50;99.90;;;;;;5032098;28;19920;-69
2022/01/26 06:13:00;;;;;;;;;;;0.20;99.90;;;;;;5046941;28;19960;-68
2022/01/26 06:15:26;;;;;;;;;;;0.10;99.90;;;;;;5031830;28;20379;-71
2022/01/26 06:17:52;;;;;;;;;;;0.10;99.90;;;;;;5031673;28;20283;-71
2022/01/26 06:20:18;;;;;;;;;;;0.30;99.90;;;;;;5033856;28;19959;-70
2022/01/26 06:22:44;;;;;;;;;;;0.70;99.90;;;;;;5033642;28;19917;-71
2022/01/26 06:25:09;;;;;;;;;;;0.70;99.90;;;;;;5032383;28;20257;-70
2022/01/26 06:27:36;;;;;;;;;;;0.30;99.90;;;;;;5033314;28;19924;-70
2022/01/26 06:30:03;;;;;;;;;;;0.10;99.90;;;;;;5033222;28;19919;-68
2022/01/26 06:32:30;;;;;;;;;;;0.00;99.90;;;;;;5032679;28;19913;-70
2022/01/26 06:34:55;;;;;;;;;;;-0.30;99.90;;;;;;5032327;28;19944;-69
2022/01/26 06:37:21;;;;;;;;;;;-0.50;99.90;;;;;;5031296;28;20384;-69
2022/01/26 06:39:47;;;;;;;;;;;-0.70;99.90;;;;;;5032317;28;19920;-69
2022/01/26 06:42:16;;;;;;;;;;;-0.80;99.90;;;;;;5033348;28;20368;-69
2022/01/26 06:45:06;;;;;;;;;;;-0.70;99.90;;;;;;5033240;28;19921;-74
2022/01/26 06:49:57;;;;;;;;;;;-0.50;99.90;;;;;;5033557;28;20407;-69
2022/01/26 06:52:22;;;;;;;;;;;-0.40;99.90;;;;;;5024934;28;19913;-69
2022/01/26 06:54:48;;;;;;;;;;;-0.50;99.90;;;;;;5030512;28;20371;-81
2022/01/26 06:57:14;;;;;;;;;;;-0.40;99.90;;;;;;5026149;28;19921;-74
2022/01/26 06:59:41;;;;;;;;;;;-0.20;99.90;;;;;;5029007;28;19917;-71
2022/01/26 07:02:08;;;;;;;;;;;-0.20;99.90;;;;;;5030723;28;19948;-75
2022/01/26 07:04:33;;;;;;;;;;;-0.20;99.90;;;;;;5028881;28;19917;-72
2022/01/26 07:06:59;;;;;;;;;;;-0.30;99.90;;;;;;5030633;28;19971;-71
2022/01/26 07:09:25;;;;;;;;;;;-0.40;99.90;;;;;;5029593;28;20344;-71
2022/01/26 07:11:50;;;;;;;;;;;-0.70;99.90;;;;;;5010634;28;19921;-70
2022/01/26 07:19:45;;;;;;;;;;;-0.60;99.90;;;;;;5010958;28;20367;-72
2022/01/26 07:20:05;;;;;;;;;;;-0.30;99.90;;;;;;5000172;28;19921;-72
2022/01/26 07:22:31;;;;;;;;;;;-0.20;99.90;;;;;;5011008;28;19956;-71
2022/01/26 07:24:57;;;;;;;;;;;-0.40;99.90;;;;;;5018245;28;19968;-72
2022/01/26 07:27:26;;;;;;;;;;;-0.50;99.90;;;;;;5031372;28;20363;-80
2022/01/26 07:29:52;;;;;;;;;;;-0.40;99.90;;;;;;5034912;28;20387;-71
2022/01/26 07:32:18;;;;;;;;;;;-0.40;99.90;;;;;;5033668;28;19923;-71
2022/01/26 07:34:45;;;;;;;;;;;0.60;99.90;;;;;;5034739;28;19913;-72
2022/01/26 07:37:13;;;;;;;;;;;0.40;99.90;;;;;;5032322;28;19997;-71
2022/01/26 07:39:44;;;;;;;;;;;0.20;99.90;;;;;;5034728;28;19920;-71
2022/01/26 07:42:11;;;;;;;;;;;0.00;99.90;;;;;;5034268;28;20279;-71
2022/01/26 07:44:36;;;;;;;;;;;0.10;99.90;;;;;;5034296;28;20016;-71
2022/01/26 07:47:02;;;;;;;;;;;0.30;99.90;;;;;;5048208;28;20004;-73
2022/01/26 07:49:28;;;;;;;;;;;0.40;99.90;;;;;;5034028;28;19917;-73
2022/01/26 07:51:54;;;;;;;;;;;0.90;99.90;;;;;;5032965;28;20392;-76
2022/01/26 07:54:21;;;;;;;;;;;1.30;99.90;;;;;;5034258;28;19913;-83
2022/01/26 07:56:47;;;;;;;;;;;1.50;99.90;;;;;;5035313;28;19913;-70
2022/01/26 07:59:13;;;;;;;;;;;1.80;99.90;;;;;;5035213;28;19914;-71
2022/01/26 08:01:39;;;;;;;;;;;1.80;99.90;;;;;;5034256;28;20016;-72
2022/01/26 08:04:05;;;;;;;;;;;1.40;99.90;;;;;;5033908;28;19917;-72
2022/01/26 08:06:30;;;;;;;;;;;1.10;99.90;;;;;;5033959;28;20307;-71
2022/01/26 08:08:56;;;;;;;;;;;1.10;99.90;;;;;;5033250;28;19913;-83
2022/01/26 08:11:24;;;;;;;;;;;1.20;99.90;;;;;;5032674;28;20003;-80
2022/01/26 08:13:50;;;;;;;;;;;1.40;99.90;;;;;;5048867;28;19917;-75
2022/01/26 08:16:16;;;;;;;;;;;1.60;99.90;;;;;;5033989;28;19913;-76
2022/01/26 08:18:41;;;;;;;;;;;1.90;99.90;;;;;;5033692;28;19920;-73
2022/01/26 08:21:07;;;;;;;;;;;1.90;99.90;;;;;;5034508;28;19975;-72
2022/01/26 08:23:35;;;;;;;;;;;2.00;99.90;;;;;;5050202;28;20427;-73
2022/01/26 08:26:00;;;;;;;;;;;1.90;99.90;;;;;;5051144;28;19952;-71
2022/01/26 08:28:32;;;;;;;;;;;1.90;99.90;;;;;;5035243;28;19913;-70
2022/01/26 08:30:57;;;;;;;;;;;1.80;99.90;;;;;;5036204;28;19913;-70
2022/01/26 08:33:23;;;;;;;;;;;1.80;99.90;;;;;;5036053;28;20425;-70
2022/01/26 08:35:49;;;;;;;;;;;1.70;99.90;;;;;;5035745;28;19913;-70
2022/01/26 08:38:14;;;;;;;;;;;1.70;99.90;;;;;;5035119;28;20007;-70
2022/01/26 08:40:40;;;;;;;;;;;2.10;99.90;;;;;;5035255;28;20287;-71
2022/01/26 08:43:06;;;;;;;;;;;2.40;99.90;;;;;;5030137;28;20283;-70
2022/01/26 08:45:32;;;;;;;;;;;2.60;99.90;;;;;;5035266;28;19928;-70
2022/01/26 08:47:57;;;;;;;;;;;2.50;99.90;;;;;;5035297;28;19920;-70
2022/01/26 08:50:23;;;;;;;;;;;2.90;99.90;;;;;;5050447;28;19920;-70
2022/01/26 08:52:48;;;;;;;;;;;2.90;99.90;;;;;;5033434;28;19996;-70
2022/01/26 08:55:14;;;;;;;;;;;3.10;99.90;;;;;;5033268;28;20332;-69
2022/01/26 08:57:40;;;;;;;;;;;2.80;99.90;;;;;;5049426;28;19913;-69
2022/01/26 09:00:07;;;;;;;;;;;2.90;99.90;;;;;;5034898;28;19917;-70
2022/01/26 09:02:34;;;;;;;;;;;3.20;99.90;;;;;;5033450;28;19917;-69
2022/01/26 09:05:00;;;;;;;;;;;2.80;99.90;;;;;;5032413;28;19967;-69
2022/01/26 09:07:25;;;;;;;;;;;2.90;99.90;;;;;;5033625;28;19999;-69
2022/01/26 09:09:51;;;;;;;;;;;3.20;99.90;;;;;;5033088;28;20024;-69
2022/01/26 09:12:19;;;;;;;;;;;3.30;99.90;;;;;;5032789;28;20272;-69
2022/01/26 09:14:45;;;;;;;;;;;3.30;99.90;;;;;;5031766;28;19913;-70
2022/01/26 09:17:11;;;;;;;;;;;3.50;99.90;;;;;;5033282;28;19913;-69
2022/01/26 09:19:38;;;;;;;;;;;3.50;99.90;;;;;;5034044;28;20362;-69
2022/01/26 09:22:07;;;;;;;;;;;3.50;99.90;;;;;;5032739;28;20331;-69
2022/01/26 09:24:34;;;;;;;;;;;3.30;99.90;;;;;;5033859;28;20311;-69
2022/01/26 09:27:00;;;;;;;;;;;3.30;99.90;;;;;;5033011;28;20351;-69
2022/01/26 09:29:26;;;;;;;;;;;3.70;99.90;;;;;;5032831;28;20013;-70
2022/01/26 09:31:51;;;;;;;;;;;3.90;99.90;;;;;;5033233;28;19921;-69
2022/01/26 09:34:18;;;;;;;;;;;3.70;99.90;;;;;;5032592;28;19917;-69
2022/01/26 09:36:44;;;;;;;;;;;3.90;99.90;;;;;;5032776;28;19948;-69
2022/01/26 09:39:10;;;;;;;;;;;3.70;99.90;;;;;;5032299;28;20430;-69
2022/01/26 09:41:37;;;;;;;;;;;3.70;99.90;;;;;;5032180;28;20276;-69
2022/01/26 09:44:03;;;;;;;;;;;3.90;99.90;;;;;;5031942;28;19924;-69
2022/01/26 09:46:29;;;;;;;;;;;4.10;99.90;;;;;;5032725;28;19917;-69
2022/01/26 09:48:55;;;;;;;;;;;4.10;99.90;;;;;;5034420;28;19917;-68
2022/01/26 09:51:21;;;;;;;;;;;4.00;99.90;;;;;;5033827;28;20003;-68
2022/01/26 09:53:57;;;;;;;;;;;4.20;99.90;;;;;;5032812;28;19920;-68
2022/01/26 09:56:23;;;;;;;;;;;4.00;99.90;;;;;;5032250;28;19917;-69
2022/01/26 09:58:50;;;;;;;;;;;;;;;;;;5032310;28;19913;-69
2022/01/26 10:01:16;;;;;;;;;;;4.40;99.90;;;;;;5031835;28;19971;-69
2022/01/26 10:03:43;;;;;;;;;;;4.30;99.90;;;;;;5031845;28;19917;-69
2022/01/26 10:06:17;;;;;;;;;;;4.50;99.90;;;;;;5031624;28;19925;-69
2022/01/26 10:18:57;;;;;;;;;;;4.20;99.90;;;;;;5031753;28;19916;-69
2022/01/26 10:21:24;;;;;;;;;;;4.00;99.90;;;;;;5032033;28;20356;-69
2022/01/26 10:23:52;;;;;;;;;;;4.10;99.90;;;;;;5031545;28;19921;-69
2022/01/26 10:26:19;;;;;;;;;;;4.40;99.90;;;;;;5033730;28;20007;-69
2022/01/26 10:29:00;;;;;;;;;;;4.60;99.90;;;;;;5032438;28;20012;-69
2022/01/26 10:31:26;;;;;;;;;;;4.70;99.90;;;;;;5032454;28;19913;-69
2022/01/26 10:33:57;;;;;;;;;;;4.80;99.90;;;;;;5031929;28;20003;-69
2022/01/26 10:36:22;;;;;;;;;;;4.60;99.90;;;;;;5032049;28;20008;-69
2022/01/26 10:39:04;;;;;;;;;;;4.40;99.90;;;;;;5032467;28;20448;-70
2022/01/26 10:41:30;;;;;;;;;;;4.40;99.90;;;;;;5031620;28;20004;-69
2022/01/26 10:43:57;;;;;;;;;;;4.70;99.90;;;;;;5031404;28;20343;-69
2022/01/26 10:46:25;;;;;;;;;;;4.60;99.90;;;;;;5031780;28;20380;-70
2022/01/26 10:54:35;;;;;;;;;;;4.70;99.90;;;;;;5030957;28;19920;-70
2022/01/26 10:57:01;;;;;;;;;;;4.60;99.90;;;;;;5030902;28;20344;-69
2022/01/26 10:59:27;;;;;;;;;;;4.40;99.90;;;;;;5031065;28;20000;-69
2022/01/26 11:01:53;;;;;;;;;;;4.50;99.90;;;;;;5030995;28;20437;-69
2022/01/26 11:04:19;;;;;;;;;;;4.50;99.90;;;;;;5031902;28;19917;-69
2022/01/26 11:06:49;;;;;;;;;;;4.80;99.90;;;;;;5031584;28;19921;-69
2022/01/26 11:09:18;;;;;;;;;;;4.90;99.90;;;;;;5030982;28;19967;-69
2022/01/26 11:11:43;;;;;;;;;;;4.70;99.90;;;;;;5031292;28;20562;-70
2022/01/26 11:14:22;;;;;;;;;;;4.60;99.90;;;;;;5030921;28;20004;-69
2022/01/26 11:16:49;;;;;;;;;;;4.50;99.90;;;;;;5031095;28;19913;-69
2022/01/26 11:19:15;;;;;;;;;;;4.00;99.90;;;;;;5030911;28;19975;-70
2022/01/26 11:21:41;;;;;;;;;;;;;;;;;;5031508;28;19913;-69
2022/01/26 11:24:15;;;;;;;;;;;3.40;99.90;;;;;;5030531;28;19924;-70
2022/01/26 11:26:42;;;;;;;;;;;3.60;99.90;;;;;;5031305;28;20334;-69
2022/01/26 11:29:35;;;;;;;;;;;3.40;99.90;;;;;;5032162;28;19919;-70
2022/01/26 11:32:08;;;;;;;;;;;3.50;99.90;;;;;;5030685;28;20326;-69
2022/01/26 11:34:34;;;;;;;;;;;3.60;99.90;;;;;;5032967;28;19920;-69
2022/01/26 11:37:02;;;;;;;;;;;3.80;99.90;;;;;;5031957;28;20479;-69
2022/01/26 11:45:02;;;;;;;;;;;3.80;99.90;;;;;;5039556;28;19953;-69
2022/01/26 11:45:11;;;;;;;;;;;3.80;99.90;;;;;;5031118;28;20397;-69
2022/01/26 11:47:38;;;;;;;;;;;3.40;99.90;;;;;;5031032;28;20406;-70
2022/01/26 11:50:09;;;;;;;;;;;3.20;99.90;;;;;;5031852;28;20004;-68
2022/01/26 11:52:38;;;;;;;;;;;3.10;99.90;;;;;;5030465;28;19913;-70
2022/01/26 11:55:09;;;;;;;;;;;3.40;99.90;;;;;;5029540;28;20360;-69
2022/01/26 11:57:39;;;;;;;;;;;4.00;99.90;;;;;;5032737;28;19999;-75
2022/01/26 12:00:09;;;;;;;;;;;3.20;99.90;;;;;;5031922;28;19944;-70
2022/01/26 12:05:13;;;;;;;;;;;2.50;99.90;;;;;;5030232;28;19924;-69
2022/01/26 12:07:51;;;;;;;;;;;2.70;99.90;;;;;;5030173;28;19959;-69
2022/01/26 12:10:28;;;;;;;;;;;2.70;99.90;;;;;;5029984;28;19944;-70
2022/01/26 12:13:04;;;;;;;;;;;3.00;99.90;;;;;;5031255;28;19932;-75
2022/01/26 12:15:56;;;;;;;;;;;2.90;99.90;;;;;;5032652;28;19917;-74
2022/01/26 12:18:34;;;;;;;;;;;2.50;99.90;;;;;;5034450;28;19913;-76
2022/01/26 12:35:23;;;;;;;;;;;2.20;99.90;;;;;;5047097;28;20261;-75
2022/01/26 12:38:00;;;;;;;;;;;2.20;99.90;;;;;;5050193;28;19998;-76
2022/01/26 12:43:15;;;;;;;;;;;2.10;99.90;;;;;;5033600;28;19943;-76
2022/01/26 12:46:01;;;;;;;;;;;1.70;99.90;;;;;;5028772;28;19936;-76
2022/01/26 12:48:28;;;;;;;;;;;1.80;99.90;;;;;;5030863;28;19921;-78
2022/01/26 12:50:54;;;;;;;;;;;1.80;99.90;;;;;;5032347;28;19957;-78
2022/01/26 12:53:27;;;;;;;;;;;1.90;99.90;;;;;;5031832;28;19917;-77
2022/01/26 12:55:53;;;;;;;;;;;1.90;99.90;;;;;;5031145;28;19917;-76
2022/01/26 12:58:23;;;;;;;;;;;1.50;99.90;;;;;;5032182;28;19921;-78
2022/01/26 13:00:48;;;;;;;;;;;1.50;99.90;;;;;;5032240;28;19948;-78
2022/01/26 13:03:16;;;;;;;;;;;1.40;99.90;;;;;;5033887;28;19998;-78
2022/01/26 13:05:45;;;;;;;;;;;1.60;99.90;;;;;;5034683;28;19928;-78
2022/01/26 13:08:15;;;;;;;;;;;1.40;99.90;;;;;;5034066;28;19955;-78
2022/01/26 13:10:41;;;;;;;;;;;1.10;99.90;;;;;;5048535;28;20438;-77
2022/01/26 13:13:22;;;;;;;;;;;0.80;99.90;;;;;;5027086;28;19952;-70
2022/01/26 13:16:25;;;;;;;;;;;1.00;99.90;;;;;;5032264;28;19913;-80
2022/01/26 13:19:09;;;;;;;;;;;1.00;99.90;;;;;;5033591;28;19913;-80
2022/01/26 13:21:46;;;;;;;;;;;1.00;99.90;;;;;;5032996;28;20366;-80
2022/01/26 13:27:12;;;;;;;;;;;0.90;99.90;;;;;;5035005;28;19963;-80
2022/01/26 13:29:57;;;;;;;;;;;0.70;99.90;;;;;;5023388;28;19913;-79
2022/01/26 13:37:59;;;;;;;;;;;1.10;99.90;;;;;;5012415;28;19914;-79
2022/01/26 13:40:41;;;;;;;;;;;1.00;99.90;;;;;;5030515;28;19917;-80
2022/01/26 13:43:51;;;;;;;;;;;0.80;99.90;;;;;;5034468;28;19917;-80
2022/01/26 13:49:16;;;;;;;;;;;0.90;99.90;;;;;;5034631;28;19917;-80
2022/01/26 13:54:43;;;;;;;;;;;0.70;99.90;;;;;;5034526;28;19917;-80
2022/01/26 13:59:45;;;;;;;;;;;0.60;99.90;;;;;;5034302;28;19925;-80
2022/01/26 14:02:23;;;;;;;;;;;0.50;99.90;;;;;;5033995;28;19924;-81
2022/01/26 14:04:50;;;;;;;;;;;0.30;99.90;;;;;;5033772;28;20004;-80
2022/01/26 14:07:16;;;;;;;;;;;0.30;99.90;;;;;;5034124;28;19963;-80
2022/01/26 14:09:44;;;;;;;;;;;0.40;99.90;;;;;;5034575;28;20638;-80
2022/01/26 14:12:13;;;;;;;;;;;0.10;99.90;;;;;;5034290;28;19913;-80
2022/01/26 14:14:43;;;;;;;;;;;0.10;99.90;;;;;;5033017;28;19913;-80
2022/01/26 14:17:27;;;;;;;;;;;0.30;99.90;;;;;;5034155;28;20394;-80
2022/01/26 14:25:16;;;;;;;;;;;0.60;99.90;;;;;;5032072;28;20365;-72
2022/01/26 14:27:47;;;;;;;;;;;0.60;99.90;;;;;;5030968;28;19921;-71
2022/01/26 14:41:05;;;;;;;;;;;0.60;99.90;;;;;;5030189;28;19970;-73
2022/01/26 15:22:28;;;;;;;;;;;0.60;99.90;;;;;;5031185;28;19940;-74
2022/01/26 15:42:40;;;;;;;;;;;0.30;99.90;;;;;;5032145;28;19920;-71
2022/01/26 15:50:56;;;;;;;;;;;-0.10;99.90;;;;;;5034487;28;19920;-70
2022/01/26 15:58:49;;;;;;;;;;;-0.20;99.90;;;;;;5034655;28;19970;-70
2022/01/26 16:39:05;;;;;;;;;;;-0.40;99.90;;;;;;5032974;28;19955;-69
2022/01/26 16:53:33;;;;;;;;;;;-0.70;99.90;;;;;;5032842;28;19919;-75
2022/01/26 18:16:51;;;;;;;;;;;-1.10;99.90;;;;;;5011679;28;20004;-78
2022/01/26 18:33:11;;;;;;;;;;;-1.30;99.90;;;;;;5030368;28;19924;-83
2022/01/26 18:46:50;;;;;;;;;;;-1.40;99.90;;;;;;5032320;28;20036;-72
2022/01/26 18:49:13;;;;;;;;;;;-1.50;99.90;;;;;;5032036;28;20292;-82
2022/01/26 18:51:48;;;;;;;;;;;-1.70;99.90;;;;;;5046780;28;19917;-77
2022/01/26 18:54:17;;;;;;;;;;;-1.60;99.90;;;;;;5048041;28;20315;-75
2022/01/26 18:56:46;;;;;;;;;;;-1.50;99.90;;;;;;5032918;28;20364;-84
2022/01/26 18:59:13;;;;;;;;;;;-1.50;99.90;;;;;;5032422;28;19914;-69
2022/01/26 19:01:41;;;;;;;;;;;-1.80;99.90;;;;;;5046123;28;19955;-70
2022/01/26 19:04:07;;;;;;;;;;;-1.90;99.90;;;;;;5032657;28;19913;-78
2022/01/26 19:06:41;;;;;;;;;;;-2.00;99.90;;;;;;5029817;28;20288;-77
2022/01/26 19:09:10;;;;;;;;;;;-1.90;99.90;;;;;;5030419;28;20264;-82
2022/01/26 19:11:39;;;;;;;;;;;-1.60;99.90;;;;;;5031308;28;20382;-79
2022/01/26 19:14:07;;;;;;;;;;;-1.60;99.90;;;;;;5030996;28;19921;-84
2022/01/26 19:16:44;;;;;;;;;;;-1.80;99.90;;;;;;5046461;28;19948;-85
2022/01/26 19:19:27;;;;;;;;;;;-1.70;99.90;;;;;;5045806;28;19963;-85
2022/01/26 19:22:11;;;;;;;;;;;-1.60;99.90;;;;;;5047590;28;19913;-85
2022/01/26 19:25:04;;;;;;;;;;;-1.70;99.90;;;;;;5035460;28;19917;-86
2022/01/26 19:27:30;;;;;;;;;;;-1.80;99.90;;;;;;5034972;28;20391;-82
2022/01/26 19:30:15;;;;;;;;;;;-1.60;99.90;;;;;;5034359;28;19917;-86
2022/01/26 19:46:09;;;;;;;;;;;-1.80;99.90;;;;;;5033727;28;20100;-83
2022/01/26 19:51:19;;;;;;;;;;;-1.90;99.90;;;;;;5036593;28;19920;-81
2022/01/26 19:53:45;;;;;;;;;;;-1.90;99.90;;;;;;5050120;28;19921;-76
2022/01/26 19:56:11;;;;;;;;;;;-1.80;99.90;;;;;;5049882;28;20003;-80
2022/01/26 19:58:37;;;;;;;;;;;-1.80;99.90;;;;;;5035434;28;19917;-81
2022/01/26 20:01:05;;;;;;;;;;;-1.80;99.90;;;;;;5034240;28;19925;-81
2022/01/26 20:03:34;;;;;;;;;;;-1.80;99.90;;;;;;5049436;28;19943;-84
2022/01/26 20:06:00;;;;;;;;;;;-1.70;99.90;;;;;;5031474;28;19992;-84
2022/01/26 20:08:55;;;;;;;;;;;-1.60;99.90;;;;;;5034290;28;19913;-84
2022/01/26 20:11:37;;;;;;;;;;;-1.50;99.90;;;;;;5033355;28;20253;-78
2022/01/26 20:14:05;;;;;;;;;;;-1.50;99.90;;;;;;5033721;28;20283;-82
2022/01/26 20:16:33;;;;;;;;;;;-1.70;99.90;;;;;;5035300;28;20052;-84
2022/01/26 20:19:00;;;;;;;;;;;-1.60;99.90;;;;;;5034054;28;19913;-84
2022/01/26 20:21:26;;;;;;;;;;;-1.70;99.90;;;;;;5034102;28;20405;-83
2022/01/26 20:23:52;;;;;;;;;;;-1.80;99.90;;;;;;5051105;28;19960;-84
2022/01/26 20:26:19;;;;;;;;;;;-1.80;99.90;;;;;;5033556;28;20390;-69
2022/01/26 20:28:46;;;;;;;;;;;-1.70;99.90;;;;;;5032590;28;19921;-85
2022/01/26 20:31:24;;;;;;;;;;;-1.60;99.90;;;;;;5035138;28;19913;-84
2022/01/26 20:33:51;;;;;;;;;;;-1.70;99.90;;;;;;5034230;28;20383;-84
2022/01/26 20:36:17;;;;;;;;;;;-1.60;99.90;;;;;;5033711;28;19920;-84
2022/01/26 20:38:44;;;;;;;;;;;-1.50;99.90;;;;;;5033466;28;19917;-84
2022/01/26 20:41:09;;;;;;;;;;;-1.50;99.90;;;;;;5032037;28;20364;-85
2022/01/26 20:43:35;;;;;;;;;;;-1.50;99.90;;;;;;5033236;28;19924;-84
2022/01/26 20:46:05;;;;;;;;;;;-1.60;99.90;;;;;;5033960;28;19921;-84
2022/01/26 20:48:32;;;;;;;;;;;-1.60;99.90;;;;;;5033721;28;19913;-84
2022/01/26 20:51:00;;;;;;;;;;;-1.80;99.90;;;;;;5035449;28;19971;-78
2022/01/26 20:53:26;;;;;;;;;;;-1.70;99.90;;;;;;5034260;28;19913;-84
2022/01/26 20:55:51;;;;;;;;;;;-0.80;99.90;;;;;;5035360;28;20019;-85
2022/01/26 20:58:17;;;;;;;;;;;-1.30;99.90;;;;;;5034014;28;19921;-85
2022/01/26 21:00:44;;;;;;;;;;;-1.50;99.90;;;;;;5033150;28;20392;-84
2022/01/26 21:03:13;;;;;;;;;;;-1.80;99.90;;;;;;5033057;28;19920;-85
2022/01/26 21:05:39;;;;;;;;;;;-1.70;99.90;;;;;;5031577;28;20011;-84
2022/01/26 21:08:05;;;;;;;;;;;-1.70;99.90;;;;;;5034713;28;19925;-85
2022/01/26 21:10:33;;;;;;;;;;;-1.70;99.90;;;;;;5048955;28;19917;-85
2022/01/26 21:12:59;;;;;;;;;;;-1.60;99.90;;;;;;5051672;28;19913;-85
2022/01/26 21:15:25;;;;;;;;;;;-1.70;99.90;;;;;;5047909;28;19928;-68
2022/01/26 21:17:51;;;;;;;;;;;-1.80;99.90;;;;;;5033087;28;19955;-79
2022/01/26 21:20:18;;;;;;;;;;;-1.80;99.90;;;;;;5032261;28;19952;-67